createdAt,value
2022-09-04T00:00:10.322Z,13.95
2022-09-04T00:03:05.732Z,9.02
2022-09-04T00:05:43.159Z,10.68
2022-09-04T00:11:14.180Z,10.48
2022-09-04T00:13:49.934Z,11.07
2022-09-04T00:16:24.156Z,10.68
2022-09-04T00:19:02.739Z,12.27
2022-09-04T00:21:38.468Z,10.95
2022-09-04T00:24:12.715Z,12.18
2022-09-04T00:26:54.550Z,10.98
2022-09-04T00:29:37.353Z,12.75
2022-09-04T00:32:18.925Z,10.60
2022-09-04T00:35:07.122Z,13.93
2022-09-04T00:37:43.053Z,12.00
2022-09-04T00:40:26.514Z,12.55
2022-09-04T00:43:53.520Z,12.20
2022-09-04T00:47:10.701Z,10.18
2022-09-04T00:50:07.728Z,13.63
2022-09-04T00:52:59.532Z,9.10
2022-09-04T00:55:59.890Z,9.10
2022-09-04T00:58:45.984Z,7.95
2022-09-04T01:01:23.499Z,9.27
2022-09-04T01:04:25.750Z,8.90
2022-09-04T01:07:24.062Z,10.73
2022-09-04T01:10:19.761Z,13.05
2022-09-04T01:12:58.431Z,8.18
2022-09-04T01:15:45.590Z,10.93
2022-09-04T01:18:23.440Z,9.73
2022-09-04T01:21:31.050Z,16.80
2022-09-04T01:24:35.813Z,8.98
2022-09-04T01:27:11.385Z,12.57
2022-09-04T01:29:54.196Z,8.10
2022-09-04T01:32:36.921Z,15.15
2022-09-04T01:35:21.912Z,12.45
2022-09-04T01:38:02.788Z,12.70
2022-09-04T01:40:42.242Z,14.50
2022-09-04T01:43:14.596Z,8.80
2022-09-04T01:46:05.405Z,9.05
2022-09-04T01:48:47.489Z,8.48
2022-09-04T01:51:28.040Z,13.35
2022-09-04T01:54:13.879Z,13.23
2022-09-04T01:56:53.097Z,14.02
2022-09-04T01:59:29.561Z,7.47
2022-09-04T02:02:05.800Z,13.27
2022-09-04T02:04:44.620Z,13.10
2022-09-04T02:07:23.867Z,8.27
2022-09-04T02:10:08.598Z,11.85
2022-09-04T02:12:51.243Z,12.93
2022-09-04T02:15:35.284Z,11.55
2022-09-04T02:18:15.036Z,9.40
2022-09-04T02:20:54.068Z,10.07
2022-09-04T02:23:36.091Z,12.07
2022-09-04T02:26:14.569Z,16.30
2022-09-04T02:28:58.625Z,16.83
2022-09-04T02:31:39.076Z,15.68
2022-09-04T02:34:15.100Z,13.63
2022-09-04T02:36:53.118Z,13.77
2022-09-04T02:39:38.610Z,9.55
2022-09-04T02:42:21.239Z,12.77
2022-09-04T02:45:02.275Z,9.85
2022-09-04T02:47:46.853Z,10.15
2022-09-04T02:50:39.254Z,12.65
2022-09-04T02:53:30.983Z,8.20
2022-09-04T02:56:17.101Z,12.18
2022-09-04T02:59:04.663Z,12.55
2022-09-04T03:01:41.052Z,11.02
2022-09-04T03:04:19.755Z,13.45
2022-09-04T03:06:55.049Z,10.02
2022-09-04T03:09:30.837Z,21.10
2022-09-04T03:12:07.100Z,13.80
2022-09-04T03:14:45.464Z,10.85
2022-09-04T03:17:27.022Z,12.73
2022-09-04T03:20:06.511Z,13.73
2022-09-04T03:22:44.606Z,20.63
2022-09-04T03:25:49.624Z,17.65
2022-09-04T03:28:31.208Z,14.13
2022-09-04T03:31:25.551Z,13.10
2022-09-04T03:34:21.336Z,14.38
2022-09-04T03:37:13.745Z,13.15
2022-09-04T03:39:57.174Z,13.07
2022-09-04T03:42:37.237Z,14.05
2022-09-04T03:45:22.630Z,11.63
2022-09-04T03:48:12.768Z,11.73
2022-09-04T03:50:55.340Z,11.50
2022-09-04T03:53:38.722Z,14.60
2022-09-04T03:56:31.489Z,14.60
2022-09-04T03:59:06.182Z,20.35
2022-09-04T04:01:48.492Z,14.13
2022-09-04T04:04:53.356Z,14.35
2022-09-04T04:07:38.381Z,19.30
2022-09-04T04:10:33.605Z,18.45
2022-09-04T04:16:17.856Z,16.98
2022-09-04T04:19:24.150Z,13.40
2022-09-04T04:22:11.888Z,16.50
2022-09-04T04:25:06.643Z,16.20
2022-09-04T04:27:54.468Z,12.75
2022-09-04T04:30:23.698Z,13.85
2022-09-04T04:33:25.948Z,17.17
2022-09-04T04:36:13.204Z,20.27
2022-09-04T04:39:15.564Z,18.70
2022-09-04T04:42:07.067Z,20.90
2022-09-04T04:45:25.819Z,24.10
2022-09-04T04:49:06.305Z,17.90
2022-09-04T04:52:00.100Z,17.33
2022-09-04T04:54:59.964Z,15.45
2022-09-04T04:57:37.679Z,14.05
2022-09-04T05:00:16.213Z,13.27
2022-09-04T05:03:01.987Z,13.85
2022-09-04T05:05:55.312Z,13.90
2022-09-04T05:08:36.349Z,19.25
2022-09-04T05:11:15.329Z,12.10
2022-09-04T05:13:58.525Z,10.95
2022-09-04T05:16:43.020Z,15.73
2022-09-04T05:19:22.876Z,16.90
2022-09-04T05:22:01.097Z,13.00
2022-09-04T05:24:37.818Z,14.80
2022-09-04T05:27:16.758Z,15.48
2022-09-04T05:29:53.887Z,16.92
2022-09-04T05:32:34.552Z,18.45
2022-09-04T05:35:14.369Z,18.00
2022-09-04T05:37:54.741Z,16.73
2022-09-04T05:40:32.190Z,14.10
2022-09-04T05:43:13.416Z,15.45
2022-09-04T05:45:59.528Z,13.00
2022-09-04T05:48:43.705Z,11.85
2022-09-04T05:51:54.487Z,14.30
2022-09-04T05:55:00.904Z,13.40
2022-09-04T05:57:47.704Z,16.85
2022-09-04T06:00:19.141Z,13.55
2022-09-04T06:03:17.642Z,11.00
2022-09-04T06:06:08.712Z,13.02
2022-09-04T06:09:02.243Z,13.80
2022-09-04T06:11:45.946Z,15.55
2022-09-04T06:14:35.260Z,19.25
2022-09-04T06:17:27.512Z,11.63
2022-09-04T06:20:14.539Z,10.20
2022-09-04T06:23:07.313Z,11.18
2022-09-04T06:26:08.648Z,11.45
2022-09-04T06:29:17.857Z,11.23
2022-09-04T06:32:26.202Z,10.85
2022-09-04T06:35:23.889Z,8.88
2022-09-04T06:38:08.906Z,13.13
2022-09-04T06:40:58.965Z,9.43
2022-09-04T06:43:38.099Z,9.07
2022-09-04T06:46:22.334Z,10.50
2022-09-04T06:49:03.049Z,7.95
2022-09-04T06:51:58.797Z,8.88
2022-09-04T06:54:47.265Z,6.93
2022-09-04T06:57:48.253Z,6.00
2022-09-04T07:00:20.040Z,5.45
2022-09-04T07:03:18.418Z,7.13
2022-09-04T07:05:59.802Z,5.85
2022-09-04T07:08:47.718Z,6.10
2022-09-04T07:11:29.754Z,6.10
2022-09-04T07:14:20.302Z,8.00
2022-09-04T07:17:07.384Z,7.20
2022-09-04T07:20:12.924Z,6.47
2022-09-04T07:23:27.076Z,4.30
2022-09-04T07:26:12.311Z,4.13
2022-09-04T07:29:08.916Z,5.20
2022-09-04T07:31:45.315Z,6.55
2022-09-04T07:34:26.182Z,4.90
2022-09-04T07:37:04.631Z,5.22
2022-09-04T07:39:45.569Z,5.85
2022-09-04T07:42:22.664Z,6.15
2022-09-04T07:45:03.289Z,5.78
2022-09-04T07:47:38.192Z,4.55
2022-09-04T07:50:11.700Z,5.32
2022-09-04T07:53:08.332Z,5.95
2022-09-04T07:55:42.025Z,5.32
2022-09-04T07:58:53.074Z,5.28
2022-09-04T08:01:52.417Z,6.53
2022-09-04T08:04:49.418Z,6.57
2022-09-04T08:07:28.928Z,4.50
2022-09-04T08:10:21.426Z,7.63
2022-09-04T08:13:25.389Z,9.00
2022-09-04T08:16:07.238Z,5.85
2022-09-04T08:19:01.613Z,5.85
2022-09-04T08:21:35.335Z,4.70
2022-09-04T08:24:57.037Z,4.20
2022-09-04T08:28:02.992Z,5.43
2022-09-04T08:30:47.713Z,5.25
2022-09-04T08:34:17.486Z,7.03
2022-09-04T08:36:59.613Z,5.28
2022-09-04T08:39:37.670Z,4.60
2022-09-04T08:42:54.174Z,5.22
2022-09-04T08:45:55.448Z,4.32
2022-09-04T08:49:10.544Z,6.93
2022-09-04T08:52:36.226Z,4.57
2022-09-04T08:55:51.753Z,5.15
2022-09-04T08:59:08.008Z,5.22
2022-09-04T09:02:28.519Z,9.10
2022-09-04T09:05:41.335Z,5.80
2022-09-04T09:09:19.765Z,5.63
2022-09-04T09:12:45.907Z,5.88
2022-09-04T09:15:52.988Z,4.38
2022-09-04T09:18:40.841Z,3.55
2022-09-04T09:21:13.743Z,5.82
2022-09-04T09:24:47.736Z,10.95
2022-09-04T09:28:01.832Z,5.70
2022-09-04T09:30:45.196Z,4.65
2022-09-04T09:34:15.419Z,7.35
2022-09-04T09:40:31.845Z,8.25
2022-09-04T09:44:10.030Z,5.13
2022-09-04T09:47:25.669Z,5.97
2022-09-04T09:50:22.669Z,6.97
2022-09-04T09:53:46.997Z,6.47
2022-09-04T09:57:06.064Z,7.63
2022-09-04T10:00:05.984Z,4.82
2022-09-04T10:03:45.320Z,5.07
2022-09-04T10:06:44.785Z,3.13
2022-09-04T10:10:04.865Z,4.43
2022-09-04T10:13:26.817Z,5.40
2022-09-04T10:16:53.138Z,5.63
2022-09-04T10:20:06.173Z,4.32
2022-09-04T10:23:08.895Z,4.88
2022-09-04T10:26:50.709Z,8.23
2022-09-04T10:29:46.599Z,4.22
2022-09-04T10:33:07.957Z,4.18
2022-09-04T10:36:04.984Z,5.78
2022-09-04T10:39:02.565Z,3.50
2022-09-04T10:42:02.013Z,3.80
2022-09-04T10:44:56.548Z,3.65
2022-09-04T10:48:29.618Z,3.38
2022-09-04T10:51:21.016Z,5.25
2022-09-04T10:54:45.028Z,4.40
2022-09-04T10:57:39.276Z,3.35
2022-09-04T11:00:14.356Z,3.83
2022-09-04T11:03:28.205Z,4.10
2022-09-04T11:06:31.543Z,4.05
2022-09-04T11:09:34.078Z,4.68
2022-09-04T11:12:53.711Z,3.58
2022-09-04T11:16:09.998Z,4.50
2022-09-04T11:19:16.064Z,4.88
2022-09-04T11:22:15.115Z,4.78
2022-09-04T11:25:42.812Z,3.47
2022-09-04T11:28:52.196Z,6.25
2022-09-04T11:31:47.119Z,4.38
2022-09-04T11:35:14.259Z,3.88
2022-09-04T11:38:09.251Z,3.65
2022-09-04T11:41:29.106Z,4.78
2022-09-04T11:44:48.448Z,6.30
2022-09-04T11:48:07.085Z,3.42
2022-09-04T11:50:56.565Z,3.35
2022-09-04T11:53:52.968Z,3.42
2022-09-04T11:56:58.289Z,6.28
2022-09-04T12:00:03.607Z,3.03
2022-09-04T12:03:29.702Z,5.35
2022-09-04T12:06:14.947Z,3.38
2022-09-04T12:09:21.504Z,4.40
2022-09-04T12:12:43.110Z,2.72
2022-09-04T12:15:45.299Z,5.18
2022-09-04T12:19:23.221Z,5.18
2022-09-04T12:23:02.773Z,3.10
2022-09-04T12:26:21.687Z,7.05
2022-09-04T12:29:33.810Z,3.50
2022-09-04T12:33:18.636Z,6.57
2022-09-04T12:36:36.972Z,5.15
2022-09-04T12:39:48.033Z,4.30
2022-09-04T12:42:25.585Z,4.35
2022-09-04T12:45:11.132Z,2.50
2022-09-04T12:47:57.266Z,6.38
2022-09-04T12:50:44.391Z,3.13
2022-09-04T12:53:34.040Z,5.82
2022-09-04T12:56:12.126Z,5.55
2022-09-04T12:59:02.001Z,3.80
2022-09-04T13:01:46.355Z,4.25
2022-09-04T13:04:27.685Z,3.00
2022-09-04T13:07:16.677Z,4.28
2022-09-04T13:09:57.364Z,3.78
2022-09-04T13:12:42.352Z,3.20
2022-09-04T13:15:30.797Z,5.38
2022-09-04T13:18:18.191Z,5.20
2022-09-04T13:20:58.122Z,5.70
2022-09-04T13:23:46.845Z,5.25
2022-09-04T13:26:38.342Z,5.93
2022-09-04T13:29:35.927Z,6.72
2022-09-04T13:32:31.697Z,4.68
2022-09-04T13:35:19.236Z,9.45
2022-09-04T13:38:11.580Z,8.48
2022-09-04T13:41:31.012Z,5.15
2022-09-04T13:44:34.446Z,8.82
2022-09-04T13:47:08.339Z,8.27
2022-09-04T13:49:44.343Z,10.27
2022-09-04T13:52:19.443Z,11.20
2022-09-04T13:54:55.697Z,11.85
2022-09-04T13:57:30.355Z,12.73
2022-09-04T14:00:07.526Z,15.45
2022-09-04T14:02:39.241Z,20.90
2022-09-04T14:05:13.366Z,19.13
2022-09-04T14:07:46.151Z,10.50
2022-09-04T14:10:20.055Z,10.10
2022-09-04T14:13:12.449Z,10.90
2022-09-04T14:16:04.695Z,10.52
2022-09-04T14:19:00.185Z,9.43
2022-09-04T14:22:00.342Z,11.55
2022-09-04T14:24:42.158Z,11.20
2022-09-04T14:27:23.276Z,12.57
2022-09-04T14:30:06.130Z,10.02
2022-09-04T14:32:58.400Z,8.75
2022-09-04T14:35:37.607Z,12.60
2022-09-04T14:38:42.358Z,12.57
2022-09-04T14:41:37.148Z,10.70
2022-09-04T14:44:20.929Z,13.13
2022-09-04T14:47:03.543Z,10.02
2022-09-04T14:49:41.685Z,12.68
2022-09-04T14:52:21.683Z,12.77
2022-09-04T14:54:57.773Z,13.05
2022-09-04T14:57:34.633Z,12.32
2022-09-04T15:00:14.904Z,13.68
2022-09-04T15:02:48.601Z,9.73
2022-09-04T15:05:27.741Z,15.82
2022-09-04T15:08:01.086Z,10.02
2022-09-04T15:10:47.134Z,9.85
2022-09-04T15:13:48.773Z,8.38
2022-09-04T15:16:29.533Z,9.63
2022-09-04T15:19:09.921Z,11.38
2022-09-04T15:21:47.328Z,10.35
2022-09-04T15:27:09.393Z,11.60
2022-09-04T15:29:47.950Z,12.80
2022-09-04T15:32:23.730Z,11.25
2022-09-04T15:35:12.724Z,11.25
2022-09-04T15:37:48.385Z,9.55
2022-09-04T15:40:32.912Z,8.93
2022-09-04T15:43:14.045Z,14.40
2022-09-04T15:45:48.265Z,9.75
2022-09-04T15:48:43.965Z,8.38
2022-09-04T15:51:24.602Z,10.40
2022-09-04T15:54:21.202Z,12.20
2022-09-04T15:57:03.268Z,9.48
2022-09-04T15:59:50.279Z,9.13
2022-09-04T16:02:37.394Z,8.13
2022-09-04T16:05:24.107Z,6.63
2022-09-04T16:08:05.432Z,5.95
2022-09-04T16:11:00.436Z,6.40
2022-09-04T16:13:45.337Z,5.55
2022-09-04T16:16:29.802Z,4.30
2022-09-04T16:19:21.985Z,7.72
2022-09-04T16:22:07.693Z,4.18
2022-09-04T16:24:44.816Z,5.68
2022-09-04T16:27:21.286Z,4.82
2022-09-04T16:29:59.073Z,4.25
2022-09-04T16:32:32.170Z,7.72
2022-09-04T16:35:06.102Z,7.55
2022-09-04T16:37:42.588Z,5.22
2022-09-04T16:40:28.433Z,5.43
2022-09-04T16:43:12.069Z,5.38
2022-09-04T16:45:50.092Z,6.63
2022-09-04T16:48:33.892Z,5.65
2022-09-04T16:51:39.725Z,5.22
2022-09-04T16:54:08.912Z,3.85
2022-09-04T16:56:42.944Z,4.40
2022-09-04T16:59:30.160Z,5.10
2022-09-04T17:02:03.708Z,4.55
2022-09-04T17:04:40.261Z,4.93
2022-09-04T17:07:20.412Z,5.63
2022-09-04T17:10:01.884Z,6.85
2022-09-04T17:12:52.879Z,6.80
2022-09-04T17:15:33.963Z,5.65
2022-09-04T17:18:08.479Z,6.50
2022-09-04T17:23:25.951Z,10.40
2022-09-04T17:29:11.312Z,5.45
2022-09-04T17:29:16.666Z,8.45
2022-09-04T17:29:43.117Z,8.50
2022-09-04T17:35:34.106Z,5.75
2022-09-04T17:40:34.822Z,6.78
2022-09-04T17:40:54.772Z,6.70
2022-09-04T17:41:31.225Z,8.95
2022-09-04T17:44:31.936Z,9.88
2022-09-04T17:47:18.380Z,6.63
2022-09-04T17:49:53.745Z,6.75
2022-09-04T17:52:28.723Z,9.48
2022-09-04T17:55:03.970Z,6.45
2022-09-04T17:57:53.749Z,7.20
2022-09-04T18:00:26.293Z,11.63
2022-09-04T18:03:03.901Z,8.20
2022-09-04T18:05:49.162Z,9.23
2022-09-04T18:08:32.600Z,10.93
2022-09-04T18:11:13.894Z,10.15
2022-09-04T18:13:54.702Z,9.48
2022-09-04T18:17:11.495Z,8.02
2022-09-04T18:19:47.686Z,14.52
2022-09-04T18:22:33.470Z,9.02
2022-09-04T18:25:17.060Z,14.80
2022-09-04T18:28:06.483Z,11.93
2022-09-04T18:36:39.346Z,9.82
2022-09-04T18:37:21.502Z,11.27
2022-09-04T18:37:26.560Z,7.88
2022-09-04T18:40:08.659Z,10.57
2022-09-04T18:50:26.019Z,9.38
2022-09-04T18:50:39.645Z,15.85
2022-09-04T18:50:45.239Z,10.88
2022-09-04T18:51:31.057Z,9.07
2022-09-04T18:54:09.532Z,15.15
2022-09-04T18:56:46.218Z,9.15
2022-09-04T18:59:21.014Z,11.40
2022-09-04T19:02:00.974Z,8.75
2022-09-04T19:04:48.919Z,7.95
2022-09-04T19:07:30.078Z,17.50
2022-09-04T19:10:11.851Z,14.80
2022-09-04T19:12:56.276Z,8.60
2022-09-04T19:16:05.576Z,10.63
2022-09-04T19:18:48.793Z,13.40
2022-09-04T19:21:39.822Z,11.10
2022-09-04T19:24:28.676Z,14.10
2022-09-04T19:27:29.018Z,12.93
2022-09-04T19:30:18.681Z,18.63
2022-09-04T19:33:06.050Z,14.30
2022-09-04T19:35:45.012Z,11.73
2022-09-04T19:43:51.236Z,9.60
2022-09-04T19:46:08.362Z,15.82
2022-09-04T19:46:15.177Z,14.60
2022-09-04T19:47:29.750Z,14.07
2022-09-04T19:52:28.263Z,13.57
2022-09-04T19:53:37.680Z,13.10
2022-09-04T19:56:23.299Z,15.48
2022-09-04T19:58:58.981Z,14.70
2022-09-04T20:01:39.721Z,15.15
2022-09-04T20:04:27.042Z,15.05
2022-09-04T20:07:02.785Z,19.65
2022-09-04T20:09:38.339Z,13.32
2022-09-04T20:12:20.798Z,13.18
2022-09-04T20:14:57.120Z,19.85
2022-09-04T20:17:46.915Z,19.58
2022-09-04T20:20:23.284Z,21.00
2022-09-04T20:23:00.110Z,25.15
2022-09-04T20:25:46.510Z,19.40
2022-09-04T20:28:24.693Z,21.15
2022-09-04T20:31:35.569Z,13.52
2022-09-04T20:34:17.067Z,17.60
2022-09-04T20:36:52.576Z,13.57
2022-09-04T20:39:29.022Z,10.57
2022-09-04T20:42:05.228Z,8.50
2022-09-04T20:44:51.178Z,16.15
2022-09-04T20:52:50.396Z,14.25
2022-09-04T20:52:53.415Z,19.70
2022-09-04T20:53:37.159Z,38.85
2022-09-04T20:57:07.574Z,10.27
2022-09-04T21:03:09.576Z,38.45
2022-09-04T21:03:19.610Z,45.72
2022-09-04T21:06:06.082Z,32.90
2022-09-04T21:08:51.715Z,34.65
2022-09-04T21:11:40.879Z,37.50
2022-09-04T21:14:22.453Z,18.92
2022-09-04T21:17:27.567Z,38.53
2022-09-04T21:20:59.812Z,21.20
2022-09-04T21:24:17.003Z,20.67
2022-09-04T21:27:27.357Z,68.47
2022-09-04T21:30:06.480Z,36.00
2022-09-04T21:33:27.751Z,19.70
2022-09-04T21:36:26.760Z,26.33
2022-09-04T21:39:39.349Z,28.58
2022-09-04T21:42:50.958Z,21.95
2022-09-04T21:45:48.098Z,34.38
2022-09-04T21:48:43.739Z,40.83
2022-09-04T21:59:49.287Z,35.83
2022-09-04T22:02:32.046Z,33.67
2022-09-04T22:02:40.458Z,52.97
2022-09-04T22:04:44.778Z,30.13
2022-09-04T22:09:54.173Z,17.97
2022-09-04T22:13:29.338Z,39.72
2022-09-04T22:13:53.115Z,16.55
2022-09-04T22:16:58.734Z,26.30
2022-09-04T22:20:13.004Z,16.30
2022-09-04T22:23:20.303Z,13.55
2022-09-04T22:26:23.964Z,17.73
2022-09-04T22:29:37.566Z,37.53
2022-09-04T22:33:05.683Z,22.83
2022-09-04T22:36:17.309Z,36.10
2022-09-04T22:39:44.497Z,60.60
2022-09-04T22:42:45.026Z,26.27
2022-09-04T22:45:49.225Z,33.67
2022-09-04T22:48:47.231Z,24.15
2022-09-04T22:51:35.916Z,37.05
2022-09-04T22:54:37.473Z,37.20
2022-09-04T22:57:12.172Z,62.97
2022-09-04T23:00:11.725Z,135.70
2022-09-04T23:03:26.172Z,58.95
2022-09-04T23:09:13.744Z,33.47
2022-09-04T23:13:49.833Z,24.48
2022-09-04T23:14:01.163Z,21.38
2022-09-04T23:17:11.711Z,12.25
2022-09-04T23:26:33.064Z,10.32
2022-09-04T23:26:57.302Z,21.83
2022-09-04T23:27:43.512Z,53.17
2022-09-04T23:30:26.446Z,41.08
2022-09-04T23:33:42.628Z,23.65
2022-09-04T23:37:01.297Z,18.52
2022-09-04T23:39:49.852Z,60.50
2022-09-04T23:42:47.506Z,25.17
2022-09-04T23:46:01.377Z,34.53
2022-09-04T23:49:05.490Z,21.60
2022-09-04T23:51:46.758Z,23.48
2022-09-04T23:54:46.936Z,32.83
2022-09-04T23:57:26.657Z,32.45
